createdAt,value
2023-06-11T00:00:19.151Z,93088.75
2023-06-11T00:03:24.346Z,93085.75
2023-06-11T00:06:33.897Z,93084.22
2023-06-11T00:09:39.043Z,93087.41
2023-06-11T00:12:44.094Z,93081.41
2023-06-11T00:15:49.269Z,93087.44
2023-06-11T00:18:57.893Z,93078.63
2023-06-11T00:22:06.491Z,93080.00
2023-06-11T00:25:13.884Z,93083.03
2023-06-11T00:28:19.170Z,93074.59
2023-06-11T00:31:24.344Z,93078.06
2023-06-11T00:34:29.426Z,93082.84
2023-06-11T00:37:37.434Z,93086.84
2023-06-11T00:40:42.498Z,93074.94
2023-06-11T00:43:50.248Z,93075.34
2023-06-11T00:46:57.610Z,93079.53
2023-06-11T00:50:03.725Z,93080.16
2023-06-11T00:53:11.584Z,93086.13
2023-06-11T00:56:18.645Z,93093.78
2023-06-11T00:59:26.430Z,93096.94
2023-06-11T01:02:37.471Z,93099.44
2023-06-11T01:05:46.864Z,93107.78
2023-06-11T01:08:59.796Z,93098.63
2023-06-11T01:12:14.560Z,93108.19
2023-06-11T01:15:20.217Z,93101.88
2023-06-11T01:18:30.187Z,93105.19
2023-06-11T01:21:37.263Z,93091.78
2023-06-11T01:25:00.389Z,93093.34
2023-06-11T01:28:12.900Z,93097.00
2023-06-11T01:31:18.625Z,93092.97
2023-06-11T01:34:26.648Z,93104.59
2023-06-11T01:37:34.262Z,93108.53
2023-06-11T01:40:39.941Z,93101.75
2023-06-11T01:43:50.203Z,93100.19
2023-06-11T01:46:55.343Z,93095.75
2023-06-11T01:50:02.187Z,93099.31
2023-06-11T01:53:07.255Z,93097.94
2023-06-11T01:56:12.644Z,93100.44
2023-06-11T01:59:22.373Z,93097.97
2023-06-11T02:02:27.715Z,93100.81
2023-06-11T02:05:34.464Z,93105.00
2023-06-11T02:08:39.539Z,93099.59
2023-06-11T02:11:44.744Z,93090.22
2023-06-11T02:14:52.430Z,93100.78
2023-06-11T02:17:57.590Z,93097.00
2023-06-11T02:21:02.698Z,93097.41
2023-06-11T02:24:08.380Z,93103.19
2023-06-11T02:27:13.644Z,93106.19
2023-06-11T02:30:21.913Z,93104.19
2023-06-11T02:33:27.021Z,93108.91
2023-06-11T02:36:32.120Z,93111.91
2023-06-11T02:39:37.813Z,93121.16
2023-06-11T02:42:42.882Z,93122.72
2023-06-11T02:45:50.628Z,93121.31
2023-06-11T02:48:56.991Z,93126.28
2023-06-11T02:52:02.083Z,93129.13
2023-06-11T02:55:08.388Z,93128.53
2023-06-11T02:58:13.696Z,93142.88
2023-06-11T03:01:21.489Z,93136.50
2023-06-11T03:04:26.790Z,93127.53
2023-06-11T03:07:32.244Z,93128.16
2023-06-11T03:10:37.363Z,93130.94
2023-06-11T03:13:42.456Z,93129.72
2023-06-11T03:16:50.190Z,93130.47
2023-06-11T03:19:55.337Z,93119.81
2023-06-11T03:23:00.509Z,93128.63
2023-06-11T03:26:05.665Z,93122.25
2023-06-11T03:29:16.852Z,93123.53
2023-06-11T03:32:29.793Z,93121.28
2023-06-11T03:35:35.314Z,93119.63
2023-06-11T03:38:49.427Z,93120.44
2023-06-11T03:41:57.817Z,93124.66
2023-06-11T03:45:05.939Z,93121.69
2023-06-11T03:48:13.774Z,93122.06
2023-06-11T03:51:19.647Z,93129.53
2023-06-11T03:54:24.848Z,93122.88
2023-06-11T03:57:29.908Z,93124.22
2023-06-11T04:00:35.083Z,93129.94
2023-06-11T04:03:43.129Z,93130.09
2023-06-11T04:06:48.677Z,93130.13
2023-06-11T04:09:54.543Z,93132.31
2023-06-11T04:12:59.684Z,93133.72
2023-06-11T04:16:06.997Z,93127.47
2023-06-11T04:19:15.628Z,93137.28
2023-06-11T04:22:22.233Z,93136.13
2023-06-11T04:25:27.506Z,93143.22
2023-06-11T04:28:34.808Z,93145.16
2023-06-11T04:31:43.288Z,93135.59
2023-06-11T04:34:52.156Z,93136.94
2023-06-11T04:37:57.427Z,93132.00
2023-06-11T04:41:06.695Z,93140.47
2023-06-11T04:44:13.701Z,93140.34
2023-06-11T04:47:23.813Z,93134.25
2023-06-11T04:50:33.032Z,93140.19
2023-06-11T04:53:38.733Z,93138.44
2023-06-11T04:56:46.242Z,93136.44
2023-06-11T04:59:52.430Z,93122.06
2023-06-11T05:03:03.485Z,93121.38
2023-06-11T05:06:14.889Z,93129.25
2023-06-11T05:09:23.218Z,93122.19
2023-06-11T05:12:29.691Z,93127.06
2023-06-11T05:15:35.654Z,93120.69
2023-06-11T05:18:41.037Z,93125.31
2023-06-11T05:21:50.782Z,93125.22
2023-06-11T05:24:56.814Z,93130.69
2023-06-11T05:28:04.059Z,93126.97
2023-06-11T05:31:14.247Z,93140.22
2023-06-11T05:34:24.381Z,93137.03
2023-06-11T05:37:32.358Z,93139.66
2023-06-11T05:40:38.410Z,93141.78
2023-06-11T05:43:44.329Z,93140.88
2023-06-11T05:46:49.608Z,93141.47
2023-06-11T05:49:55.271Z,93145.00
2023-06-11T05:53:03.100Z,93142.09
2023-06-11T05:56:08.874Z,93145.38
2023-06-11T05:59:16.751Z,93140.22
2023-06-11T06:02:22.236Z,93146.25
2023-06-11T06:05:27.449Z,93148.19
2023-06-11T06:08:35.766Z,93147.81
2023-06-11T06:11:41.117Z,93145.22
2023-06-11T06:14:46.353Z,93155.06
2023-06-11T06:17:51.773Z,93156.50
2023-06-11T06:21:04.957Z,93159.44
2023-06-11T06:24:15.069Z,93160.75
2023-06-11T06:27:20.253Z,93164.25
2023-06-11T06:30:25.317Z,93175.56
2023-06-11T06:33:31.874Z,93171.78
2023-06-11T06:36:40.289Z,93177.97
2023-06-11T06:39:49.882Z,93188.50
2023-06-11T06:42:55.158Z,93193.78
2023-06-11T06:46:08.051Z,93200.44
2023-06-11T06:49:13.192Z,93193.88
2023-06-11T06:52:18.272Z,93187.78
2023-06-11T06:55:26.478Z,93194.81
2023-06-11T06:58:37.956Z,93184.13
2023-06-11T07:01:43.601Z,93183.22
2023-06-11T07:04:49.542Z,93188.66
2023-06-11T07:07:56.473Z,93187.03
2023-06-11T07:11:04.772Z,93186.69
2023-06-11T07:14:17.280Z,93188.28
2023-06-11T07:17:24.242Z,93181.66
2023-06-11T07:20:29.575Z,93184.78
2023-06-11T07:23:34.772Z,93187.53
2023-06-11T07:26:43.850Z,93182.03
2023-06-11T07:29:50.285Z,93183.38
2023-06-11T07:32:56.567Z,93179.41
2023-06-11T07:36:02.204Z,93183.34
2023-06-11T07:39:08.655Z,93182.50
2023-06-11T07:42:16.448Z,93186.03
2023-06-11T07:45:23.232Z,93173.69
2023-06-11T07:48:29.584Z,93183.09
2023-06-11T07:51:35.096Z,93178.84
2023-06-11T07:54:45.299Z,93193.00
2023-06-11T07:57:53.098Z,93189.06
2023-06-11T08:00:58.193Z,93190.75
2023-06-11T08:04:03.317Z,93188.91
2023-06-11T08:07:09.168Z,93183.84
2023-06-11T08:10:14.539Z,93193.09
2023-06-11T08:13:23.215Z,93183.25
2023-06-11T08:16:28.742Z,93185.88
2023-06-11T08:19:33.929Z,93184.44
2023-06-11T08:22:40.949Z,93187.75
2023-06-11T08:25:46.118Z,93181.78
2023-06-11T08:28:53.745Z,93184.25
2023-06-11T08:31:58.891Z,93187.34
2023-06-11T08:35:04.001Z,93179.56
2023-06-11T08:38:09.073Z,93171.88
